Time;durP1;ratioP1;P1;durP2;ratioP2;P2;SDS_P1;SDS_P2;PMS_P1;PMS_P2;Temp;Humidity;BMP_temperature;BMP_pressure;BME280_temperature;BME280_humidity;BME280_pressure;Samples;Min_cycle;Max_cycle;Signal;HPM_P1;HPM_P2
2021/05/31 00:01:51;;;;;;;26.75;15.90;;;;;;;16.71;78.47;98526.72;6185963;23;20031;-91
2021/05/31 00:04:17;;;;;;;26.45;16.42;;;;;;;16.74;78.33;98531.78;6159775;23;20394;-89
2021/05/31 00:07:04;;;;;;;27.95;15.05;;;;;;;16.71;78.29;98537.50;6159887;23;20099;-90
2021/05/31 00:09:31;;;;;;;25.67;15.55;;;;;;;16.55;78.61;98542.19;6173162;22;20025;-92
2021/05/31 00:11:58;;;;;;;27.15;14.63;;;;;;;16.53;78.22;98531.59;6143303;23;20028;-93
2021/05/31 00:14:25;;;;;;;28.20;15.23;;;;;;;16.66;77.91;98531.84;6187315;23;20016;-95
2021/05/31 00:16:51;;;;;;;27.65;15.13;;;;;;;16.72;77.56;98533.78;6137401;23;20354;-96
2021/05/31 00:19:19;;;;;;;28.08;14.32;;;;;;;16.86;77.05;98555.66;6194605;23;20031;-96
2021/05/31 00:21:45;;;;;;;28.48;13.43;;;;;;;16.62;77.07;98527.78;6135118;23;20024;-95
2021/05/31 00:24:11;;;;;;;31.25;14.38;;;;;;;16.73;76.98;98530.09;6136914;23;20035;-95
2021/05/31 00:26:37;;;;;;;30.02;13.82;;;;;;;16.56;76.65;98542.03;6183082;23;20076;-92
2021/05/31 00:29:04;;;;;;;28.67;13.73;;;;;;;16.49;76.99;98538.38;6151386;23;20096;-89
2021/05/31 00:31:30;;;;;;;31.77;13.00;;;;;;;16.51;76.83;98544.41;6140155;23;20464;-90
2021/05/31 00:34:14;;;;;;;23.83;12.52;;;;;;;16.33;77.14;98543.88;6133992;23;20441;-88
2021/05/31 00:36:40;;;;;;;17.50;11.63;;;;;;;16.37;76.80;98564.09;6105933;23;20520;-89
2021/05/31 00:39:06;;;;;;;24.83;11.98;;;;;;;16.30;76.85;98549.63;6155043;23;20018;-88
2021/05/31 00:41:31;;;;;;;21.00;11.05;;;;;;;16.39;76.47;98544.00;6156073;23;20028;-88
2021/05/31 00:43:57;;;;;;;19.40;10.57;;;;;;;16.42;75.94;98548.19;6105301;23;20064;-87
2021/05/31 00:46:24;;;;;;;17.42;10.77;;;;;;;16.47;75.64;98561.97;6155796;23;20032;-87
2021/05/31 00:48:50;;;;;;;17.52;10.32;;;;;;;16.36;75.88;98575.88;6130185;23;20021;-88
2021/05/31 00:51:16;;;;;;;19.42;9.80;;;;;;;16.32;75.68;98582.66;6155736;23;20469;-90
2021/05/31 00:53:42;;;;;;;16.52;9.95;;;;;;;16.17;75.76;98588.81;6131011;23;20402;-91
2021/05/31 00:56:07;;;;;;;15.90;10.32;;;;;;;16.22;75.81;98596.38;6132027;23;20014;-91
2021/05/31 00:58:33;;;;;;;17.15;10.40;;;;;;;16.08;75.71;98603.34;6158068;23;20021;-91
2021/05/31 01:01:01;;;;;;;18.02;11.25;;;;;;;15.99;75.66;98607.94;6142414;23;20022;-91
2021/05/31 01:03:27;;;;;;;24.75;12.10;;;;;;;15.84;76.11;98615.06;6145091;23;20021;-92
2021/05/31 01:05:55;;;;;;;23.90;12.80;;;;;;;15.70;76.50;98605.84;6144663;23;20025;-94
2021/05/31 01:08:24;;;;;;;34.13;14.70;;;;;;;15.75;76.59;98626.88;6133921;23;20017;-95
2021/05/31 01:10:55;;;;;;;27.95;13.20;;;;;;;15.74;76.86;98630.59;6133933;23;20100;-96
2021/05/31 01:13:36;;;;;;;28.42;13.77;;;;;;;15.71;77.04;98644.41;6138781;23;20013;-94
2021/05/31 01:16:21;;;;;;;31.77;14.38;;;;;;;15.61;77.00;98635.63;6166050;23;20021;-91
2021/05/31 01:18:48;;;;;;;27.55;12.93;;;;;;;15.40;77.69;98612.81;6148927;23;20018;-86
2021/05/31 01:21:27;;;;;;;38.03;14.57;;;;;;;15.43;77.38;98604.38;6143469;23;20017;-89
2021/05/31 01:24:16;;;;;;;;;;;;;;;15.48;77.45;98620.03;6134282;23;20115;-95
2021/05/31 01:26:50;;;;;;;;;;;;;;;15.56;77.15;98633.47;6124877;23;20004;-91
2021/05/31 01:29:17;;;;;;;32.40;15.13;;;;;;;15.36;77.57;98627.63;6109015;23;19952;-93
2021/05/31 01:31:48;;;;;;;29.10;14.88;;;;;;;15.28;77.68;98633.84;6108467;23;20052;-92
2021/05/31 01:34:22;;;;;;;29.02;14.52;;;;;;;15.38;76.97;98622.06;6124271;23;20021;-95
2021/05/31 01:36:59;;;;;;;28.08;15.18;;;;;;;15.63;76.80;98630.94;6139279;23;20469;-96
2021/05/31 01:39:27;;;;;;;35.83;14.85;;;;;;;15.66;75.69;98625.25;6116271;23;20021;-96
2021/05/31 01:41:53;;;;;;;25.40;15.02;;;;;;;15.75;75.81;98637.66;6096718;23;20017;-96
2021/05/31 01:44:19;;;;;;;27.45;14.10;;;;;;;15.90;75.60;98641.31;6133781;23;20028;-93
2021/05/31 01:46:45;;;;;;;24.90;14.65;;;;;;;16.07;75.08;98639.41;6158577;23;20025;-92
2021/05/31 01:49:11;;;;;;;26.83;14.52;;;;;;;16.20;74.28;98642.38;6131324;23;20470;-88
2021/05/31 01:51:37;;;;;;;29.45;13.82;;;;;;;16.28;74.24;98638.78;6155803;23;20021;-88
2021/05/31 01:54:05;;;;;;;28.80;13.07;;;;;;;16.34;73.81;98653.44;6106536;23;20029;-89
2021/05/31 01:56:31;;;;;;;22.63;12.95;;;;;;;16.32;73.72;98659.00;6107385;23;20425;-88
2021/05/31 01:58:57;;;;;;;29.13;13.73;;;;;;;16.36;73.60;98659.47;6131422;23;20104;-88
2021/05/31 02:01:23;;;;;;;23.35;12.88;;;;;;;16.34;73.55;98669.63;6131468;23;20033;-88
2021/05/31 02:03:49;;;;;;;27.58;12.88;;;;;;;16.15;73.96;98671.72;6132022;23;20013;-87
2021/05/31 02:06:15;;;;;;;23.48;12.95;;;;;;;16.21;74.20;98664.78;6157961;23;20138;-89
2021/05/31 02:08:41;;;;;;;19.05;11.95;;;;;;;16.32;73.92;98668.94;6106807;23;20056;-88
2021/05/31 02:11:15;;;;;;;24.35;13.00;;;;;;;16.31;73.77;98645.69;6107833;23;20049;-88
2021/05/31 02:13:42;;;;;;;27.17;13.02;;;;;;;16.59;73.09;98662.25;6133663;23;20022;-91
2021/05/31 02:16:20;;;;;;;20.02;11.80;;;;;;;16.63;72.80;98668.97;6158757;23;20025;-93
2021/05/31 02:18:50;;;;;;;22.30;12.02;;;;;;;16.55;72.79;98667.16;6107780;23;20022;-89
2021/05/31 02:21:16;;;;;;;22.35;11.57;;;;;;;16.57;72.61;98661.56;6106819;23;20409;-87
2021/05/31 02:23:42;;;;;;;28.25;11.50;;;;;;;16.55;72.53;98669.88;6131477;23;20021;-89
2021/05/31 02:26:17;;;;;;;34.42;12.27;;;;;;;16.49;72.93;98666.00;6107070;23;20117;-87
2021/05/31 02:28:44;;;;;;;27.58;12.05;;;;;;;16.63;72.17;98671.66;6106923;23;20017;-82
2021/05/31 02:31:10;;;;;;;26.17;11.80;;;;;;;16.69;72.12;98671.78;6106500;23;20029;-84
2021/05/31 02:33:38;;;;;;;19.20;11.00;;;;;;;16.65;72.39;98662.34;6106036;23;20028;-85
2021/05/31 02:36:04;;;;;;;21.50;11.32;;;;;;;16.74;71.74;98653.25;6105942;23;20057;-86
2021/05/31 02:38:31;;;;;;;15.73;10.85;;;;;;;16.70;71.37;98648.34;6132543;23;20020;-88
2021/05/31 02:40:56;;;;;;;23.48;11.38;;;;;;;16.71;71.41;98656.25;6106646;23;20049;-86
2021/05/31 02:43:22;;;;;;;26.55;12.13;;;;;;;16.48;71.58;98660.78;6160306;23;20013;-87
2021/05/31 02:45:48;;;;;;;20.02;11.48;;;;;;;16.63;71.78;98652.78;6144303;23;20032;-87
2021/05/31 02:48:14;;;;;;;20.70;12.05;;;;;;;16.80;71.43;98651.66;6139039;23;20026;-89
2021/05/31 02:50:40;;;;;;;19.35;13.13;;;;;;;16.81;70.57;98655.19;6114728;23;20028;-88
2021/05/31 02:53:06;;;;;;;21.77;13.07;;;;;;;16.60;71.35;98667.47;6143844;23;20038;-85
2021/05/31 02:55:32;;;;;;;22.42;13.18;;;;;;;16.72;71.16;98662.50;6182542;23;20033;-84
2021/05/31 02:57:58;;;;;;;32.90;15.77;;;;;;;16.68;71.46;98682.75;6147101;23;20113;-85
2021/05/31 03:00:26;;;;;;;24.42;12.52;;;;;;;16.60;71.61;98686.34;6156668;23;20101;-87
2021/05/31 03:02:52;;;;;;;25.95;13.57;;;;;;;16.57;71.57;98692.09;6111465;23;20120;-88
2021/05/31 03:05:19;;;;;;;25.23;12.43;;;;;;;16.57;71.74;98708.28;6106506;23;20083;-86
2021/05/31 03:07:45;;;;;;;35.45;13.90;;;;;;;16.39;71.58;98696.91;6155092;23;20025;-86
2021/05/31 03:10:13;;;;;;;27.45;13.43;;;;;;;16.20;72.31;98700.84;6084578;23;20509;-84
2021/05/31 03:12:39;;;;;;;26.85;14.20;;;;;;;16.36;72.40;98694.53;6135230;23;20048;-80
2021/05/31 03:15:06;;;;;;;25.55;12.65;;;;;;;16.40;72.29;98712.09;6156161;23;20060;-84
2021/05/31 03:17:32;;;;;;;21.38;13.35;;;;;;;16.23;73.01;98695.97;6132530;23;20020;-89
2021/05/31 03:19:58;;;;;;;26.30;13.80;;;;;;;16.43;72.79;98695.53;6158225;23;20096;-87
2021/05/31 03:22:24;;;;;;;26.67;13.07;;;;;;;16.55;72.26;98704.06;6158482;23;20076;-84
2021/05/31 03:24:50;;;;;;;20.85;13.32;;;;;;;16.75;71.83;98713.44;6155296;23;20100;-86
2021/05/31 03:27:16;;;;;;;21.40;12.32;;;;;;;16.90;71.69;98719.78;6106853;23;20026;-84
2021/05/31 03:29:42;;;;;;;20.50;12.30;;;;;;;16.91;70.78;98724.13;6105624;23;20117;-80
2021/05/31 03:32:08;;;;;;;21.30;11.90;;;;;;;16.95;71.32;98714.66;6158023;23;20017;-83
2021/05/31 03:34:34;;;;;;;20.85;12.52;;;;;;;17.02;70.48;98727.47;6109486;23;20457;-84
2021/05/31 03:37:00;;;;;;;22.50;12.68;;;;;;;17.01;70.41;98723.91;6155827;23;20036;-85
2021/05/31 03:39:26;;;;;;;22.80;12.82;;;;;;;16.99;70.52;98725.94;6106396;23;20390;-84
2021/05/31 03:41:52;;;;;;;17.90;11.77;;;;;;;16.94;70.47;98728.34;6155247;23;20045;-85
2021/05/31 03:44:18;;;;;;;22.10;11.90;;;;;;;16.77;71.01;98716.78;6156358;23;20088;-85
2021/05/31 03:46:44;;;;;;;21.45;12.50;;;;;;;16.81;71.29;98717.28;6129884;23;20388;-82
2021/05/31 03:49:09;;;;;;;21.38;11.93;;;;;;;17.03;70.52;98729.13;6154627;23;20025;-87
2021/05/31 03:51:36;;;;;;;23.02;13.20;;;;;;;16.98;70.68;98721.56;6130211;23;20017;-82
2021/05/31 03:54:01;;;;;;;20.67;12.10;;;;;;;17.15;70.43;98723.16;6156040;23;20018;-84
2021/05/31 03:56:27;;;;;;;26.10;13.32;;;;;;;17.26;69.88;98723.72;6129285;23;20059;-82
2021/05/31 03:58:54;;;;;;;24.08;13.38;;;;;;;17.38;69.97;98716.91;6131169;23;20021;-83
2021/05/31 04:01:20;;;;;;;21.83;12.38;;;;;;;17.52;68.87;98707.97;6132127;23;20025;-83
2021/05/31 04:03:46;;;;;;;21.77;13.65;;;;;;;17.63;68.60;98712.94;6082302;23;20477;-83
2021/05/31 04:11:37;;;;;;;29.20;13.73;;;;;;;17.91;67.46;98718.63;6134034;23;20072;-87
2021/05/31 04:14:08;;;;;;;25.05;13.02;;;;;;;17.93;67.35;98726.53;6105760;23;20018;-89
2021/05/31 04:16:34;;;;;;;34.22;14.20;;;;;;;17.86;67.57;98722.88;6130589;23;20041;-85
2021/05/31 04:19:01;;;;;;;31.38;14.48;;;;;;;17.85;67.33;98727.47;6126964;23;20057;-81
2021/05/31 04:21:26;;;;;;;27.42;13.50;;;;;;;17.64;67.98;98730.84;6127239;23;20041;-83
2021/05/31 04:23:52;;;;;;;25.95;14.18;;;;;;;17.81;67.48;98744.25;6152708;23;20029;-84
2021/05/31 04:26:18;;;;;;;26.63;14.27;;;;;;;17.44;67.83;98705.34;6129352;23;20113;-86
2021/05/31 04:28:44;;;;;;;25.80;14.63;;;;;;;17.39;68.19;98724.81;6155965;23;20021;-83
2021/05/31 04:31:10;;;;;;;25.50;15.88;;;;;;;17.15;69.43;98733.09;6156779;23;20032;-84
2021/05/31 04:33:39;;;;;;;26.63;14.40;;;;;;;17.04;69.79;98731.66;6155193;23;20109;-88
2021/05/31 04:36:05;;;;;;;29.52;15.40;;;;;;;17.03;70.17;98746.16;6083096;23;20045;-87
2021/05/31 04:38:31;;;;;;;27.15;15.48;;;;;;;16.93;70.60;98756.38;6133050;23;20053;-88
2021/05/31 04:40:57;;;;;;;29.95;14.70;;;;;;;17.00;70.32;98749.25;6131790;23;20029;-86
2021/05/31 04:43:23;;;;;;;25.98;14.43;;;;;;;16.90;70.28;98756.72;6131871;23;20044;-87
2021/05/31 04:45:49;;;;;;;25.60;14.70;;;;;;;16.87;70.61;98751.69;6156312;23;20028;-87
2021/05/31 04:48:15;;;;;;;28.77;14.65;;;;;;;16.97;70.16;98768.50;6158864;23;20021;-87
2021/05/31 04:50:41;;;;;;;28.48;16.13;;;;;;;16.99;70.29;98764.59;6157468;23;20105;-86
2021/05/31 04:53:07;;;;;;;28.80;15.25;;;;;;;16.93;70.62;98767.19;6132209;23;20017;-87
2021/05/31 04:55:37;;;;;;;30.25;15.70;;;;;;;17.13;70.19;98762.16;6158167;23;20029;-86
2021/05/31 04:58:09;;;;;;;28.15;15.88;;;;;;;17.33;69.62;98765.22;6157182;23;20017;-88
2021/05/31 05:00:35;;;;;;;29.08;14.50;;;;;;;17.50;69.33;98753.28;6157058;23;20029;-88
2021/05/31 05:03:01;;;;;;;29.33;15.75;;;;;;;17.56;68.58;98755.22;6157736;23;20029;-85
2021/05/31 05:05:27;;;;;;;29.35;14.98;;;;;;;17.62;68.44;98762.63;6131838;23;20025;-87
2021/05/31 05:07:55;;;;;;;36.33;14.80;;;;;;;17.72;68.18;98762.38;6158391;23;20121;-86
2021/05/31 05:10:22;;;;;;;28.15;14.65;;;;;;;17.82;67.67;98768.38;6109123;23;20037;-82
2021/05/31 05:12:50;;;;;;;36.72;15.50;;;;;;;17.64;68.13;98776.81;6108766;23;20021;-87
2021/05/31 05:15:16;;;;;;;25.85;15.05;;;;;;;17.76;67.87;98768.28;6085397;23;20116;-84
2021/05/31 05:17:43;;;;;;;26.83;14.93;;;;;;;17.83;67.73;98771.94;6145240;23;20013;-83
2021/05/31 05:20:10;;;;;;;29.08;14.77;;;;;;;17.89;67.85;98784.72;6174335;23;20025;-84
2021/05/31 05:22:39;;;;;;;26.00;14.40;;;;;;;17.98;67.00;98774.66;6099605;23;20096;-85
2021/05/31 05:25:06;;;;;;;34.40;14.30;;;;;;;17.86;67.74;98782.38;6111923;23;20032;-88
2021/05/31 05:27:32;;;;;;;30.45;14.70;;;;;;;18.04;67.42;98793.69;6083892;23;20104;-86
2021/05/31 05:29:58;;;;;;;32.30;14.18;;;;;;;18.17;66.91;98799.31;6059404;23;20049;-87
2021/05/31 05:32:23;;;;;;;30.13;14.85;;;;;;;18.08;66.51;98804.97;6156762;23;20068;-84
2021/05/31 05:34:51;;;;;;;31.08;14.65;;;;;;;18.06;67.00;98818.69;6155821;23;20092;-84
2021/05/31 05:37:25;;;;;;;29.02;13.93;;;;;;;17.79;67.57;98821.97;6103542;23;20022;-88
2021/05/31 05:47:42;;;;;;;27.83;13.45;;;;;;;18.48;66.28;98819.97;6156033;23;20067;-87
2021/05/31 05:50:10;;;;;;;27.58;14.35;;;;;;;18.30;66.20;98823.03;6155959;23;20457;-86
2021/05/31 05:52:36;;;;;;;27.05;14.15;;;;;;;18.35;66.40;98833.28;6107081;23;20044;-86
2021/05/31 05:55:05;;;;;;;24.80;15.07;;;;;;;18.48;65.89;98822.66;6131120;23;20021;-86
2021/05/31 05:57:31;;;;;;;28.02;15.55;;;;;;;18.77;65.43;98831.81;6107641;23;20025;-86
2021/05/31 06:00:00;;;;;;;30.83;15.60;;;;;;;18.98;65.21;98822.94;6130469;23;20160;-84
2021/05/31 06:02:30;;;;;;;25.73;15.95;;;;;;;19.06;63.83;98826.38;6156777;23;20043;-85
2021/05/31 06:04:56;;;;;;;29.38;15.85;;;;;;;18.87;64.50;98827.81;6131991;23;20072;-87
2021/05/31 06:07:22;;;;;;;26.92;15.07;;;;;;;18.84;64.71;98821.94;6156474;23;20029;-84
2021/05/31 06:09:50;;;;;;;27.88;15.15;;;;;;;18.83;64.94;98831.09;6131218;23;20429;-85
2021/05/31 06:12:16;;;;;;;23.48;14.32;;;;;;;18.88;64.44;98828.63;6154985;23;20018;-83
2021/05/31 06:14:43;;;;;;;23.30;14.77;;;;;;;18.82;64.86;98818.59;6131858;23;20461;-85
2021/05/31 06:17:09;;;;;;;28.20;14.15;;;;;;;18.96;64.13;98828.56;6108523;23;20450;-85
2021/05/31 06:19:35;;;;;;;25.02;15.40;;;;;;;18.87;64.33;98827.81;6130822;23;20453;-84
2021/05/31 06:22:01;;;;;;;27.27;14.48;;;;;;;18.96;64.75;98825.84;6157973;23;20032;-83
2021/05/31 06:24:27;;;;;;;34.58;14.25;;;;;;;19.24;63.61;98834.09;6181186;23;20013;-85
2021/05/31 06:26:53;;;;;;;23.20;13.38;;;;;;;19.77;63.14;98828.44;6156907;23;20049;-83
2021/05/31 06:29:19;;;;;;;24.70;14.18;;;;;;;20.19;61.97;98832.13;6154784;23;20045;-84
2021/05/31 06:31:45;;;;;;;24.65;13.63;;;;;;;20.30;61.24;98839.72;6058450;23;20473;-84
2021/05/31 06:34:18;;;;;;;27.75;14.70;;;;;;;20.14;60.78;98835.44;6156147;23;20465;-82
2021/05/31 06:36:48;;;;;;;31.55;14.45;;;;;;;20.33;60.46;98842.88;6130399;23;20449;-82
2021/05/31 06:39:16;;;;;;;;;;;;;;;20.23;60.13;98845.09;6155308;23;20029;-83
2021/05/31 06:41:42;;;;;;;27.67;13.73;;;;;;;20.01;61.05;98830.75;6130816;23;19925;-84
2021/05/31 06:44:08;;;;;;;25.58;12.95;;;;;;;20.02;60.91;98834.28;6157025;23;20053;-83
2021/05/31 06:46:34;;;;;;;25.88;14.75;;;;;;;20.06;60.54;98849.16;6161872;23;20025;-84
2021/05/31 06:49:00;;;;;;;25.95;14.48;;;;;;;19.93;60.99;98854.44;6089583;23;20065;-82
2021/05/31 06:51:29;;;;;;;26.65;13.65;;;;;;;20.14;60.54;98844.41;6164803;23;20020;-84
2021/05/31 06:53:55;;;;;;;28.63;14.85;;;;;;;20.06;60.16;98849.97;6165709;23;20020;-85
2021/05/31 06:56:23;;;;;;;24.35;14.30;;;;;;;19.85;60.09;98847.28;6157991;23;20103;-84
2021/05/31 06:58:50;;;;;;;23.25;13.82;;;;;;;19.72;60.42;98855.31;6130947;23;20040;-83
2021/05/31 07:01:16;;;;;;;28.15;13.45;;;;;;;19.54;61.27;98855.69;6130429;23;20525;-83
2021/05/31 07:03:42;;;;;;;24.48;13.88;;;;;;;19.44;61.65;98861.41;6154459;23;20037;-82
2021/05/31 07:06:08;;;;;;;23.20;14.48;;;;;;;19.86;60.80;98854.41;6154973;23;20021;-83
2021/05/31 07:08:34;;;;;;;29.38;14.77;;;;;;;20.08;60.20;98842.50;6130512;23;20021;-84
2021/05/31 07:11:04;;;;;;;23.75;14.50;;;;;;;20.10;59.60;98855.84;6105966;23;20032;-82
2021/05/31 07:13:30;;;;;;;28.77;14.38;;;;;;;20.06;60.10;98844.56;6155231;23;20067;-83
2021/05/31 07:15:56;;;;;;;21.33;14.60;;;;;;;20.23;59.32;98839.66;6179907;23;20064;-83
2021/05/31 07:18:23;;;;;;;25.70;15.23;;;;;;;20.17;60.13;98840.47;6154626;23;20022;-84
2021/05/31 07:20:49;;;;;;;23.27;14.65;;;;;;;20.21;59.63;98846.34;6156474;23;20028;-82
2021/05/31 07:23:16;;;;;;;28.17;14.80;;;;;;;20.42;58.93;98838.13;6155091;23;20029;-83
2021/05/31 07:25:42;;;;;;;22.48;13.50;;;;;;;20.60;58.60;98848.53;6154635;23;20021;-83
2021/05/31 07:28:08;;;;;;;20.63;13.85;;;;;;;20.51;58.37;98856.00;6130478;23;20053;-83
2021/05/31 07:30:34;;;;;;;20.23;13.63;;;;;;;20.58;58.48;98850.63;6179169;23;20080;-83
2021/05/31 07:33:00;;;;;;;23.80;14.77;;;;;;;20.47;58.52;98846.53;6130140;23;20028;-86
2021/05/31 07:35:26;;;;;;;19.23;13.93;;;;;;;20.52;58.98;98860.38;6129972;23;20488;-83
2021/05/31 07:37:55;;;;;;;24.33;13.80;;;;;;;20.73;57.97;98866.78;6155977;23;20022;-85
2021/05/31 07:40:22;;;;;;;20.40;14.50;;;;;;;20.83;57.94;98856.38;6155275;23;20398;-84
2021/05/31 07:42:48;;;;;;;30.63;15.40;;;;;;;20.97;57.48;98863.56;6154126;23;20028;-84
2021/05/31 07:45:17;;;;;;;24.05;14.75;;;;;;;20.61;58.44;98877.34;6179488;23;20369;-84
2021/05/31 07:47:43;;;;;;;25.25;15.65;;;;;;;20.07;59.52;98870.63;6154488;23;20052;-83
2021/05/31 07:50:09;;;;;;;29.08;16.38;;;;;;;20.27;59.26;98883.53;6180066;23;20021;-84
2021/05/31 07:52:36;;;;;;;29.40;15.85;;;;;;;20.32;59.58;98881.94;6106393;23;20025;-83
2021/05/31 07:55:07;;;;;;;28.65;15.50;;;;;;;20.42;59.22;98886.16;6130152;23;20024;-84
2021/05/31 07:57:33;;;;;;;24.13;15.68;;;;;;;20.45;59.02;98886.59;6129908;23;20472;-83
2021/05/31 07:59:59;;;;;;;19.75;13.93;;;;;;;20.71;58.35;98880.56;6153769;23;20080;-86
2021/05/31 08:02:25;;;;;;;24.65;14.60;;;;;;;20.77;57.95;98873.50;6153924;23;20104;-85
2021/05/31 08:04:51;;;;;;;25.15;14.38;;;;;;;20.77;58.37;98857.22;6133766;23;20021;-87
2021/05/31 08:07:17;;;;;;;20.90;14.18;;;;;;;21.42;57.55;98850.41;6157258;23;20557;-86
2021/05/31 08:09:44;;;;;;;28.60;16.35;;;;;;;21.89;55.80;98862.25;6180613;23;20029;-85
2021/05/31 08:12:10;;;;;;;21.40;14.35;;;;;;;22.21;55.61;98857.03;6156542;23;20052;-85
2021/05/31 08:14:36;;;;;;;23.63;14.57;;;;;;;22.48;54.00;98855.13;6154724;23;20028;-86
2021/05/31 08:17:02;;;;;;;21.13;15.20;;;;;;;22.44;54.18;98848.44;6129552;23;20136;-85
2021/05/31 08:19:30;;;;;;;28.10;16.38;;;;;;;22.70;53.34;98858.47;6180216;23;20033;-83
2021/05/31 08:21:56;;;;;;;21.30;15.13;;;;;;;22.86;53.07;98863.44;6154712;23;20025;-83
2021/05/31 08:24:22;;;;;;;20.98;15.90;;;;;;;22.59;53.21;98864.56;6154609;23;20521;-81
2021/05/31 08:26:48;;;;;;;20.20;15.73;;;;;;;22.49;53.95;98865.84;6154278;23;20021;-81
2021/05/31 08:29:14;;;;;;;24.50;17.02;;;;;;;22.53;53.81;98863.53;6154360;23;20021;-83
2021/05/31 08:31:41;;;;;;;27.45;15.75;;;;;;;22.90;53.35;98869.31;6154429;23;20024;-83
2021/05/31 08:34:07;;;;;;;22.35;15.48;;;;;;;23.27;52.42;98870.47;6105160;23;20036;-83
2021/05/31 08:36:33;;;;;;;24.05;14.50;;;;;;;22.99;52.35;98858.00;6130474;23;20025;-83
2021/05/31 08:39:00;;;;;;;19.92;15.23;;;;;;;23.45;51.66;98847.94;6106466;23;20072;-82
2021/05/31 08:41:26;;;;;;;23.70;16.65;;;;;;;23.62;50.82;98867.34;6154355;23;20025;-82
2021/05/31 08:43:52;;;;;;;23.73;16.42;;;;;;;23.47;51.21;98857.59;6154382;23;20022;-83
2021/05/31 08:46:19;;;;;;;24.90;15.57;;;;;;;23.60;51.56;98853.09;6153931;23;20079;-84
2021/05/31 08:48:45;;;;;;;24.52;14.60;;;;;;;24.19;50.63;98851.91;6178463;23;20017;-83
2021/05/31 08:51:11;;;;;;;25.98;15.88;;;;;;;24.51;49.38;98852.66;6154009;23;20353;-82
2021/05/31 08:53:37;;;;;;;25.65;14.65;;;;;;;24.53;49.38;98858.75;6155473;23;20346;-84
2021/05/31 08:56:05;;;;;;;20.90;14.02;;;;;;;24.68;49.14;98861.97;6154818;23;20032;-83
2021/05/31 08:58:31;;;;;;;23.35;15.82;;;;;;;24.75;48.55;98871.97;6154109;23;20100;-83
2021/05/31 09:00:56;;;;;;;24.00;14.95;;;;;;;24.45;48.86;98872.72;6155057;23;20105;-83
2021/05/31 09:03:22;;;;;;;20.95;13.77;;;;;;;24.56;48.90;98869.25;6156034;23;20122;-83
2021/05/31 09:05:49;;;;;;;18.08;12.38;;;;;;;24.35;49.61;98880.53;6155852;23;20022;-84
2021/05/31 09:08:19;;;;;;;16.80;12.98;;;;;;;24.14;49.53;98870.81;6179398;23;20073;-83
2021/05/31 09:11:18;;;;;;;21.38;14.57;;;;;;;23.91;49.89;98879.59;6166768;23;20331;-82
2021/05/31 09:13:44;;;;;;;17.25;13.23;;;;;;;23.70;50.80;98886.25;6188889;23;20022;-83
2021/05/31 09:16:15;;;;;;;21.63;13.60;;;;;;;23.85;50.56;98884.06;6163229;23;20060;-83
2021/05/31 09:18:48;;;;;;;20.67;13.35;;;;;;;24.11;50.04;98883.03;6161115;23;20125;-85
2021/05/31 09:21:18;;;;;;;18.08;12.20;;;;;;;24.13;50.11;98885.53;6135041;23;20133;-85
2021/05/31 09:23:45;;;;;;;16.73;11.57;;;;;;;23.94;50.17;98876.44;6132714;23;20152;-82
2021/05/31 09:26:11;;;;;;;15.52;11.73;;;;;;;24.18;49.83;98880.22;6132226;23;20529;-83
2021/05/31 09:28:37;;;;;;;17.77;12.07;;;;;;;24.02;50.00;98869.88;6157391;23;20052;-82
2021/05/31 09:31:16;;;;;;;21.33;11.45;;;;;;;24.29;49.76;98874.06;6135449;23;20131;-82
2021/05/31 09:33:42;;;;;;;20.80;11.85;;;;;;;24.37;49.01;98875.66;6182322;23;20035;-81
2021/05/31 09:36:10;;;;;;;15.13;11.13;;;;;;;24.86;48.66;98872.09;6156996;23;20021;-82
2021/05/31 09:38:56;;;;;;;23.35;10.30;;;;;;;25.48;47.60;98879.38;6131450;23;20032;-82
2021/05/31 09:41:32;;;;;;;16.80;11.43;;;;;;;25.56;46.57;98890.00;6106401;23;20049;-83
2021/05/31 09:44:00;;;;;;;15.70;11.98;;;;;;;25.88;46.28;98872.31;6131133;23;20025;-83
2021/05/31 09:46:37;;;;;;;;;;;;;;;25.67;45.87;98892.78;6180210;23;20146;-83
2021/05/31 09:49:10;;;;;;;14.80;9.75;;;;;;;25.56;46.15;98882.63;6155791;23;19995;-83
2021/05/31 09:51:54;;;;;;;11.10;9.60;;;;;;;25.43;46.67;98875.44;6156015;23;20017;-82
2021/05/31 09:54:35;;;;;;;12.27;9.30;;;;;;;25.58;46.16;98872.31;6155167;23;20557;-82
2021/05/31 09:57:16;;;;;;;14.57;9.50;;;;;;;25.74;46.09;98870.81;6131118;23;20020;-84
2021/05/31 09:59:57;;;;;;;11.82;9.55;;;;;;;25.64;46.51;98859.56;6132560;23;20044;-83
2021/05/31 10:02:41;;;;;;;20.52;9.35;;;;;;;26.09;46.30;98873.66;6108961;23;20096;-83
2021/05/31 10:07:58;;;;;;;12.88;9.52;;;;;;;25.66;46.71;98869.25;6134558;23;20025;-83
2021/05/31 10:10:24;;;;;;;10.48;9.00;;;;;;;25.99;45.49;98867.94;6131672;23;20474;-82
2021/05/31 10:12:51;;;;;;;15.65;10.40;;;;;;;26.42;45.50;98875.03;6155109;23;20017;-82
2021/05/31 10:15:18;;;;;;;14.73;10.63;;;;;;;26.71;45.01;98872.47;6156880;23;20025;-83
2021/05/31 10:17:46;;;;;;;14.50;10.35;;;;;;;26.57;44.67;98875.44;6179871;23;20331;-82
2021/05/31 10:20:13;;;;;;;13.10;10.57;;;;;;;26.15;45.26;98871.91;6179647;23;20028;-83
2021/05/31 10:22:39;;;;;;;19.05;11.50;;;;;;;26.01;45.83;98864.97;6179713;23;20025;-82
2021/05/31 10:25:06;;;;;;;22.33;10.85;;;;;;;26.05;45.63;98871.66;6130162;23;20013;-82
2021/05/31 10:27:35;;;;;;;16.88;11.07;;;;;;;26.22;45.50;98880.88;6155181;23;20097;-82
2021/05/31 10:30:02;;;;;;;17.50;10.85;;;;;;;26.48;45.07;98876.03;6154947;23;20476;-85
2021/05/31 10:32:29;;;;;;;16.75;11.35;;;;;;;26.91;44.43;98880.31;6106169;23;20112;-84
2021/05/31 10:34:57;;;;;;;19.55;11.35;;;;;;;26.91;44.45;98872.94;6130481;23;20072;-82
2021/05/31 10:37:32;;;;;;;22.83;10.93;;;;;;;27.13;43.89;98884.13;6130954;23;20018;-82
2021/05/31 10:40:00;;;;;;;15.52;11.25;;;;;;;28.08;42.19;98886.31;6179718;23;20021;-84
2021/05/31 10:42:46;;;;;;;15.43;11.02;;;;;;;28.38;41.32;98881.63;6130380;23;20028;-81
2021/05/31 10:45:27;;;;;;;20.55;11.07;;;;;;;28.50;41.27;98871.34;6134071;23;20048;-80
2021/05/31 10:48:10;;;;;;;17.35;12.68;;;;;;;28.51;41.77;98882.13;6170109;23;20021;-83
2021/05/31 10:50:53;;;;;;;20.60;12.32;;;;;;;29.36;40.14;98873.69;6164038;23;20017;-83
2021/05/31 10:53:25;;;;;;;15.10;12.15;;;;;;;29.35;40.44;98886.63;6177541;23;20025;-82
2021/05/31 10:56:02;;;;;;;17.50;11.77;;;;;;;28.82;40.59;98873.50;6154316;23;20076;-84
2021/05/31 10:58:44;;;;;;;27.10;12.30;;;;;;;29.08;40.18;98863.72;6154635;23;20092;-82
2021/05/31 11:01:12;;;;;;;16.58;11.15;;;;;;;29.32;39.69;98856.03;6131252;23;20024;-83
2021/05/31 11:04:06;;;;;;;19.38;11.88;;;;;;;29.87;38.70;98866.06;6155282;23;20386;-83
2021/05/31 11:06:38;;;;;;;15.88;11.18;;;;;;;29.44;39.01;98856.72;6154718;23;20470;-82
2021/05/31 11:09:08;;;;;;;18.58;11.95;;;;;;;28.92;39.81;98860.69;6153802;23;20057;-83
2021/05/31 11:11:43;;;;;;;16.52;11.95;;;;;;;28.65;40.29;98852.34;6154615;23;20021;-81
2021/05/31 11:14:09;;;;;;;18.60;13.85;;;;;;;28.99;40.32;98846.81;6130268;23;20040;-83
2021/05/31 11:16:36;;;;;;;18.83;13.27;;;;;;;29.07;40.01;98843.59;6105554;23;20476;-83
2021/05/31 11:19:05;;;;;;;18.00;12.52;;;;;;;29.35;39.49;98844.50;6130591;23;20108;-82
2021/05/31 11:21:42;;;;;;;20.23;12.10;;;;;;;29.14;39.61;98844.25;6130360;23;20021;-82
2021/05/31 11:24:19;;;;;;;23.52;13.38;;;;;;;29.17;39.55;98859.44;6156176;23;20045;-82
2021/05/31 11:26:47;;;;;;;27.25;14.55;;;;;;;28.11;41.73;98862.19;6107751;23;20041;-82
2021/05/31 11:29:16;;;;;;;20.92;14.05;;;;;;;29.03;40.87;98859.78;6154442;23;20450;-83
2021/05/31 11:31:43;;;;;;;17.77;13.55;;;;;;;29.25;39.56;98857.06;6130422;23;20025;-84
2021/05/31 11:34:10;;;;;;;23.83;13.30;;;;;;;29.33;39.69;98847.50;6154225;23;20117;-82
2021/05/31 11:36:41;;;;;;;16.63;12.60;;;;;;;30.17;38.69;98851.75;6154345;23;20025;-82
2021/05/31 11:39:13;;;;;;;24.60;13.20;;;;;;;30.00;38.24;98857.34;6154516;23;20109;-81
2021/05/31 11:41:46;;;;;;;22.73;12.85;;;;;;;30.76;37.93;98859.09;6156223;23;20050;-82